sensor_id;sensor_type;location;lat;lon;timestamp;P1;durP1;ratioP1;P2;durP2;ratioP2
18084;SDS011;9169;44.492;11.372;2024-03-22T00:02:18;112.10;;;46.17;;
18084;SDS011;9169;44.492;11.372;2024-03-22T00:04:46;116.90;;;47.73;;
18084;SDS011;9169;44.492;11.372;2024-03-22T00:07:12;112.97;;;46.33;;
18084;SDS011;9169;44.492;11.372;2024-03-22T00:09:40;108.50;;;43.73;;
18084;SDS011;9169;44.492;11.372;2024-03-22T00:12:08;112.90;;;45.17;;
18084;SDS011;9169;44.492;11.372;2024-03-22T00:14:37;119.27;;;48.07;;
18084;SDS011;9169;44.492;11.372;2024-03-22T00:17:04;123.53;;;48.90;;
18084;SDS011;9169;44.492;11.372;2024-03-22T00:19:31;110.77;;;46.37;;
18084;SDS011;9169;44.492;11.372;2024-03-22T00:21:58;115.07;;;45.87;;
18084;SDS011;9169;44.492;11.372;2024-03-22T00:24:25;104.90;;;41.10;;
18084;SDS011;9169;44.492;11.372;2024-03-22T00:26:52;111.70;;;44.50;;
18084;SDS011;9169;44.492;11.372;2024-03-22T00:29:21;94.17;;;39.47;;
18084;SDS011;9169;44.492;11.372;2024-03-22T00:31:47;93.30;;;36.03;;
18084;SDS011;9169;44.492;11.372;2024-03-22T00:34:15;95.03;;;36.80;;
18084;SDS011;9169;44.492;11.372;2024-03-22T00:36:42;88.20;;;33.77;;
18084;SDS011;9169;44.492;11.372;2024-03-22T00:39:09;92.20;;;35.63;;
18084;SDS011;9169;44.492;11.372;2024-03-22T00:41:36;90.97;;;35.30;;
18084;SDS011;9169;44.492;11.372;2024-03-22T00:44:04;91.47;;;34.67;;
18084;SDS011;9169;44.492;11.372;2024-03-22T00:46:32;92.07;;;36.20;;
18084;SDS011;9169;44.492;11.372;2024-03-22T00:49:01;95.17;;;36.30;;
18084;SDS011;9169;44.492;11.372;2024-03-22T00:51:28;101.67;;;39.50;;
18084;SDS011;9169;44.492;11.372;2024-03-22T00:53:55;104.87;;;41.87;;
18084;SDS011;9169;44.492;11.372;2024-03-22T00:56:22;98.60;;;39.50;;
18084;SDS011;9169;44.492;11.372;2024-03-22T00:58:50;111.80;;;43.93;;
18084;SDS011;9169;44.492;11.372;2024-03-22T01:01:16;115.40;;;44.00;;
18084;SDS011;9169;44.492;11.372;2024-03-22T01:03:45;112.73;;;45.17;;
18084;SDS011;9169;44.492;11.372;2024-03-22T01:06:12;105.73;;;46.80;;
18084;SDS011;9169;44.492;11.372;2024-03-22T01:08:39;110.10;;;44.30;;
18084;SDS011;9169;44.492;11.372;2024-03-22T01:11:06;111.23;;;46.00;;
18084;SDS011;9169;44.492;11.372;2024-03-22T01:13:34;112.93;;;48.07;;
18084;SDS011;9169;44.492;11.372;2024-03-22T01:16:00;116.50;;;49.50;;
18084;SDS011;9169;44.492;11.372;2024-03-22T01:18:28;126.33;;;54.93;;
18084;SDS011;9169;44.492;11.372;2024-03-22T01:20:56;128.73;;;56.50;;
18084;SDS011;9169;44.492;11.372;2024-03-22T01:23:23;129.93;;;57.03;;
18084;SDS011;9169;44.492;11.372;2024-03-22T01:25:50;119.60;;;51.30;;
18084;SDS011;9169;44.492;11.372;2024-03-22T01:28:17;110.93;;;45.50;;
18084;SDS011;9169;44.492;11.372;2024-03-22T01:30:44;128.07;;;50.90;;
18084;SDS011;9169;44.492;11.372;2024-03-22T01:33:12;121.10;;;50.73;;
18084;SDS011;9169;44.492;11.372;2024-03-22T01:35:38;116.53;;;50.77;;
18084;SDS011;9169;44.492;11.372;2024-03-22T01:38:09;111.93;;;45.50;;
18084;SDS011;9169;44.492;11.372;2024-03-22T01:40:35;105.63;;;41.07;;
18084;SDS011;9169;44.492;11.372;2024-03-22T01:43:03;101.20;;;39.30;;
18084;SDS011;9169;44.492;11.372;2024-03-22T01:45:31;97.07;;;36.37;;
18084;SDS011;9169;44.492;11.372;2024-03-22T01:47:59;101.03;;;38.33;;
18084;SDS011;9169;44.492;11.372;2024-03-22T01:50:27;106.80;;;37.80;;
18084;SDS011;9169;44.492;11.372;2024-03-22T01:52:55;94.50;;;37.60;;
18084;SDS011;9169;44.492;11.372;2024-03-22T01:55:23;90.90;;;36.63;;
18084;SDS011;9169;44.492;11.372;2024-03-22T01:57:51;93.70;;;37.27;;
18084;SDS011;9169;44.492;11.372;2024-03-22T02:00:21;96.87;;;38.47;;
18084;SDS011;9169;44.492;11.372;2024-03-22T02:02:48;101.03;;;38.90;;
18084;SDS011;9169;44.492;11.372;2024-03-22T02:05:15;101.07;;;37.60;;
18084;SDS011;9169;44.492;11.372;2024-03-22T02:07:45;99.43;;;38.20;;
18084;SDS011;9169;44.492;11.372;2024-03-22T02:10:12;98.80;;;39.50;;
18084;SDS011;9169;44.492;11.372;2024-03-22T02:12:43;96.97;;;39.47;;
18084;SDS011;9169;44.492;11.372;2024-03-22T02:15:10;100.97;;;40.83;;
18084;SDS011;9169;44.492;11.372;2024-03-22T02:17:37;100.80;;;39.97;;
18084;SDS011;9169;44.492;11.372;2024-03-22T02:20:04;97.50;;;39.90;;
18084;SDS011;9169;44.492;11.372;2024-03-22T02:22:33;99.90;;;40.70;;
18084;SDS011;9169;44.492;11.372;2024-03-22T02:25:01;109.20;;;43.60;;
18084;SDS011;9169;44.492;11.372;2024-03-22T02:27:29;108.60;;;44.10;;
18084;SDS011;9169;44.492;11.372;2024-03-22T02:29:56;104.53;;;43.97;;
18084;SDS011;9169;44.492;11.372;2024-03-22T02:32:24;107.47;;;43.10;;
18084;SDS011;9169;44.492;11.372;2024-03-22T02:34:50;100.23;;;41.60;;
18084;SDS011;9169;44.492;11.372;2024-03-22T02:37:18;103.87;;;42.50;;
18084;SDS011;9169;44.492;11.372;2024-03-22T02:39:47;104.20;;;41.70;;
18084;SDS011;9169;44.492;11.372;2024-03-22T02:42:16;103.80;;;41.70;;
18084;SDS011;9169;44.492;11.372;2024-03-22T02:44:43;110.27;;;44.37;;
18084;SDS011;9169;44.492;11.372;2024-03-22T02:47:11;99.73;;;40.50;;
18084;SDS011;9169;44.492;11.372;2024-03-22T02:49:38;102.80;;;39.60;;
18084;SDS011;9169;44.492;11.372;2024-03-22T02:52:07;102.90;;;41.67;;
18084;SDS011;9169;44.492;11.372;2024-03-22T02:54:33;103.43;;;40.10;;
18084;SDS011;9169;44.492;11.372;2024-03-22T02:57:01;102.97;;;41.23;;
18084;SDS011;9169;44.492;11.372;2024-03-22T02:59:29;106.37;;;42.87;;
18084;SDS011;9169;44.492;11.372;2024-03-22T03:01:57;101.83;;;41.23;;
18084;SDS011;9169;44.492;11.372;2024-03-22T03:04:23;99.30;;;41.87;;
18084;SDS011;9169;44.492;11.372;2024-03-22T03:06:51;98.30;;;40.50;;
18084;SDS011;9169;44.492;11.372;2024-03-22T03:09:17;109.50;;;43.93;;
18084;SDS011;9169;44.492;11.372;2024-03-22T03:11:46;103.40;;;41.63;;
18084;SDS011;9169;44.492;11.372;2024-03-22T03:14:12;110.17;;;44.57;;
18084;SDS011;9169;44.492;11.372;2024-03-22T03:16:41;107.73;;;44.97;;
18084;SDS011;9169;44.492;11.372;2024-03-22T03:19:08;115.53;;;44.83;;
18084;SDS011;9169;44.492;11.372;2024-03-22T03:21:35;113.00;;;43.17;;
18084;SDS011;9169;44.492;11.372;2024-03-22T03:24:02;113.17;;;44.23;;
18084;SDS011;9169;44.492;11.372;2024-03-22T03:26:30;115.93;;;46.30;;
18084;SDS011;9169;44.492;11.372;2024-03-22T03:28:57;111.20;;;44.93;;
18084;SDS011;9169;44.492;11.372;2024-03-22T03:31:24;117.10;;;46.50;;
18084;SDS011;9169;44.492;11.372;2024-03-22T03:33:52;114.77;;;45.50;;
18084;SDS011;9169;44.492;11.372;2024-03-22T03:36:20;113.03;;;45.43;;
18084;SDS011;9169;44.492;11.372;2024-03-22T03:38:46;105.17;;;43.77;;
18084;SDS011;9169;44.492;11.372;2024-03-22T03:41:14;111.93;;;46.10;;
18084;SDS011;9169;44.492;11.372;2024-03-22T03:43:40;108.53;;;44.07;;
18084;SDS011;9169;44.492;11.372;2024-03-22T03:46:08;104.13;;;43.80;;
18084;SDS011;9169;44.492;11.372;2024-03-22T03:48:35;106.23;;;43.80;;
18084;SDS011;9169;44.492;11.372;2024-03-22T03:51:04;109.50;;;44.17;;
18084;SDS011;9169;44.492;11.372;2024-03-22T03:53:31;110.10;;;46.60;;
18084;SDS011;9169;44.492;11.372;2024-03-22T03:55:59;112.40;;;47.13;;
18084;SDS011;9169;44.492;11.372;2024-03-22T03:58:25;114.73;;;47.63;;
18084;SDS011;9169;44.492;11.372;2024-03-22T04:00:53;114.73;;;48.60;;
18084;SDS011;9169;44.492;11.372;2024-03-22T04:03:20;113.63;;;45.83;;
18084;SDS011;9169;44.492;11.372;2024-03-22T04:05:55;104.90;;;46.07;;
18084;SDS011;9169;44.492;11.372;2024-03-22T04:08:24;119.50;;;49.73;;
18084;SDS011;9169;44.492;11.372;2024-03-22T04:10:52;113.30;;;49.90;;
18084;SDS011;9169;44.492;11.372;2024-03-22T04:13:18;116.00;;;47.37;;
18084;SDS011;9169;44.492;11.372;2024-03-22T04:15:46;126.37;;;50.90;;
18084;SDS011;9169;44.492;11.372;2024-03-22T04:18:12;117.50;;;48.43;;
18084;SDS011;9169;44.492;11.372;2024-03-22T04:20:40;120.23;;;49.93;;
18084;SDS011;9169;44.492;11.372;2024-03-22T04:23:07;119.60;;;52.27;;
18084;SDS011;9169;44.492;11.372;2024-03-22T04:25:36;128.27;;;52.40;;
18084;SDS011;9169;44.492;11.372;2024-03-22T04:28:02;129.33;;;55.00;;
18084;SDS011;9169;44.492;11.372;2024-03-22T04:30:30;130.67;;;54.13;;
18084;SDS011;9169;44.492;11.372;2024-03-22T04:32:57;124.13;;;53.60;;
18084;SDS011;9169;44.492;11.372;2024-03-22T04:35:25;141.17;;;56.87;;
18084;SDS011;9169;44.492;11.372;2024-03-22T04:37:51;122.80;;;53.57;;
18084;SDS011;9169;44.492;11.372;2024-03-22T04:40:19;134.33;;;55.80;;
18084;SDS011;9169;44.492;11.372;2024-03-22T04:42:48;133.53;;;56.97;;
18084;SDS011;9169;44.492;11.372;2024-03-22T04:45:15;138.20;;;60.03;;
18084;SDS011;9169;44.492;11.372;2024-03-22T04:47:43;128.30;;;53.83;;
18084;SDS011;9169;44.492;11.372;2024-03-22T04:50:10;136.47;;;56.50;;
18084;SDS011;9169;44.492;11.372;2024-03-22T04:52:40;124.67;;;51.60;;
18084;SDS011;9169;44.492;11.372;2024-03-22T04:55:07;124.40;;;53.07;;
18084;SDS011;9169;44.492;11.372;2024-03-22T04:57:35;133.73;;;55.97;;
18084;SDS011;9169;44.492;11.372;2024-03-22T05:00:03;132.67;;;56.30;;
18084;SDS011;9169;44.492;11.372;2024-03-22T05:02:33;126.27;;;54.87;;
18084;SDS011;9169;44.492;11.372;2024-03-22T05:04:59;126.47;;;55.77;;
18084;SDS011;9169;44.492;11.372;2024-03-22T05:07:27;136.17;;;55.37;;
18084;SDS011;9169;44.492;11.372;2024-03-22T05:09:54;134.83;;;56.10;;
18084;SDS011;9169;44.492;11.372;2024-03-22T05:12:21;138.10;;;57.97;;
18084;SDS011;9169;44.492;11.372;2024-03-22T05:14:48;121.40;;;49.90;;
18084;SDS011;9169;44.492;11.372;2024-03-22T05:17:17;116.70;;;47.10;;
18084;SDS011;9169;44.492;11.372;2024-03-22T05:19:43;117.43;;;45.20;;
18084;SDS011;9169;44.492;11.372;2024-03-22T05:22:11;109.43;;;44.67;;
18084;SDS011;9169;44.492;11.372;2024-03-22T05:24:38;107.23;;;45.50;;
18084;SDS011;9169;44.492;11.372;2024-03-22T05:27:07;112.40;;;45.70;;
18084;SDS011;9169;44.492;11.372;2024-03-22T05:29:34;114.90;;;46.00;;
18084;SDS011;9169;44.492;11.372;2024-03-22T05:32:03;115.30;;;46.53;;
18084;SDS011;9169;44.492;11.372;2024-03-22T05:34:33;119.73;;;48.87;;
18084;SDS011;9169;44.492;11.372;2024-03-22T05:36:59;111.97;;;47.67;;
18084;SDS011;9169;44.492;11.372;2024-03-22T05:39:27;121.90;;;49.27;;
18084;SDS011;9169;44.492;11.372;2024-03-22T05:41:53;121.73;;;52.10;;
18084;SDS011;9169;44.492;11.372;2024-03-22T05:44:21;118.23;;;50.37;;
18084;SDS011;9169;44.492;11.372;2024-03-22T05:46:48;115.83;;;49.13;;
18084;SDS011;9169;44.492;11.372;2024-03-22T05:49:15;116.10;;;47.20;;
18084;SDS011;9169;44.492;11.372;2024-03-22T05:51:44;116.43;;;47.53;;
18084;SDS011;9169;44.492;11.372;2024-03-22T05:54:11;106.70;;;44.80;;
18084;SDS011;9169;44.492;11.372;2024-03-22T05:56:38;115.00;;;46.80;;
18084;SDS011;9169;44.492;11.372;2024-03-22T05:59:05;105.50;;;44.20;;
18084;SDS011;9169;44.492;11.372;2024-03-22T06:01:32;104.07;;;42.10;;
18084;SDS011;9169;44.492;11.372;2024-03-22T06:04:00;102.20;;;41.70;;
18084;SDS011;9169;44.492;11.372;2024-03-22T06:06:26;108.10;;;40.80;;
18084;SDS011;9169;44.492;11.372;2024-03-22T06:08:55;100.60;;;40.53;;
18084;SDS011;9169;44.492;11.372;2024-03-22T06:11:25;102.43;;;39.90;;
18084;SDS011;9169;44.492;11.372;2024-03-22T06:13:53;98.40;;;38.90;;
18084;SDS011;9169;44.492;11.372;2024-03-22T06:16:21;98.40;;;40.10;;
18084;SDS011;9169;44.492;11.372;2024-03-22T06:18:49;99.60;;;41.50;;
18084;SDS011;9169;44.492;11.372;2024-03-22T06:21:15;99.73;;;39.80;;
18084;SDS011;9169;44.492;11.372;2024-03-22T06:23:48;100.53;;;39.73;;
18084;SDS011;9169;44.492;11.372;2024-03-22T06:26:16;88.53;;;35.83;;
18084;SDS011;9169;44.492;11.372;2024-03-22T06:28:44;92.67;;;35.80;;
18084;SDS011;9169;44.492;11.372;2024-03-22T06:31:11;94.33;;;36.37;;
18084;SDS011;9169;44.492;11.372;2024-03-22T06:33:39;94.20;;;35.33;;
18084;SDS011;9169;44.492;11.372;2024-03-22T06:36:05;90.67;;;33.70;;
18084;SDS011;9169;44.492;11.372;2024-03-22T06:38:33;83.90;;;31.00;;
18084;SDS011;9169;44.492;11.372;2024-03-22T06:41:03;89.20;;;32.60;;
18084;SDS011;9169;44.492;11.372;2024-03-22T06:43:33;88.20;;;32.50;;
18084;SDS011;9169;44.492;11.372;2024-03-22T06:46:00;83.23;;;31.30;;
18084;SDS011;9169;44.492;11.372;2024-03-22T06:48:28;82.53;;;31.00;;
18084;SDS011;9169;44.492;11.372;2024-03-22T06:50:54;89.07;;;30.97;;
18084;SDS011;9169;44.492;11.372;2024-03-22T06:53:22;85.07;;;30.50;;
18084;SDS011;9169;44.492;11.372;2024-03-22T06:55:48;83.47;;;31.17;;
18084;SDS011;9169;44.492;11.372;2024-03-22T06:58:16;82.37;;;30.47;;
18084;SDS011;9169;44.492;11.372;2024-03-22T07:00:44;82.50;;;30.63;;
18084;SDS011;9169;44.492;11.372;2024-03-22T07:03:12;80.40;;;29.10;;
18084;SDS011;9169;44.492;11.372;2024-03-22T07:05:38;84.97;;;32.87;;
18084;SDS011;9169;44.492;11.372;2024-03-22T07:08:06;85.07;;;30.83;;
18084;SDS011;9169;44.492;11.372;2024-03-22T07:10:32;86.23;;;32.00;;
18084;SDS011;9169;44.492;11.372;2024-03-22T07:13:00;83.57;;;31.10;;
18084;SDS011;9169;44.492;11.372;2024-03-22T07:15:27;83.37;;;31.50;;
18084;SDS011;9169;44.492;11.372;2024-03-22T07:17:58;86.30;;;30.77;;
18084;SDS011;9169;44.492;11.372;2024-03-22T07:20:25;85.70;;;31.07;;
18084;SDS011;9169;44.492;11.372;2024-03-22T07:22:53;88.87;;;33.00;;
18084;SDS011;9169;44.492;11.372;2024-03-22T07:25:19;90.50;;;32.80;;
18084;SDS011;9169;44.492;11.372;2024-03-22T07:27:47;87.70;;;32.10;;
18084;SDS011;9169;44.492;11.372;2024-03-22T07:30:15;87.20;;;31.77;;
18084;SDS011;9169;44.492;11.372;2024-03-22T07:32:42;89.40;;;31.70;;
18084;SDS011;9169;44.492;11.372;2024-03-22T07:35:10;92.43;;;33.83;;
18084;SDS011;9169;44.492;11.372;2024-03-22T07:37:38;88.73;;;33.30;;
18084;SDS011;9169;44.492;11.372;2024-03-22T07:40:05;88.20;;;31.53;;
18084;SDS011;9169;44.492;11.372;2024-03-22T07:42:34;91.47;;;32.40;;
18084;SDS011;9169;44.492;11.372;2024-03-22T07:45:00;84.90;;;31.03;;
18084;SDS011;9169;44.492;11.372;2024-03-22T07:47:29;87.70;;;32.40;;
18084;SDS011;9169;44.492;11.372;2024-03-22T07:49:55;88.90;;;33.23;;
18084;SDS011;9169;44.492;11.372;2024-03-22T07:52:24;86.60;;;32.90;;
18084;SDS011;9169;44.492;11.372;2024-03-22T07:54:51;86.60;;;30.57;;
18084;SDS011;9169;44.492;11.372;2024-03-22T07:57:21;82.10;;;28.60;;
18084;SDS011;9169;44.492;11.372;2024-03-22T07:59:49;77.93;;;28.70;;
18084;SDS011;9169;44.492;11.372;2024-03-22T08:02:16;81.93;;;29.20;;
18084;SDS011;9169;44.492;11.372;2024-03-22T08:04:43;77.03;;;29.60;;
18084;SDS011;9169;44.492;11.372;2024-03-22T08:07:11;79.73;;;30.60;;
18084;SDS011;9169;44.492;11.372;2024-03-22T08:09:39;77.03;;;31.37;;
18084;SDS011;9169;44.492;11.372;2024-03-22T08:12:07;78.00;;;32.10;;
18084;SDS011;9169;44.492;11.372;2024-03-22T08:14:34;88.10;;;34.87;;
18084;SDS011;9169;44.492;11.372;2024-03-22T08:17:02;83.37;;;35.27;;
18084;SDS011;9169;44.492;11.372;2024-03-22T08:19:29;80.67;;;34.20;;
18084;SDS011;9169;44.492;11.372;2024-03-22T08:21:56;85.37;;;36.00;;
18084;SDS011;9169;44.492;11.372;2024-03-22T08:24:24;81.40;;;33.70;;
18084;SDS011;9169;44.492;11.372;2024-03-22T08:26:53;75.20;;;33.60;;
18084;SDS011;9169;44.492;11.372;2024-03-22T08:29:19;79.27;;;33.47;;
18084;SDS011;9169;44.492;11.372;2024-03-22T08:31:47;80.33;;;34.60;;
18084;SDS011;9169;44.492;11.372;2024-03-22T08:34:15;76.73;;;35.33;;
18084;SDS011;9169;44.492;11.372;2024-03-22T08:36:43;76.40;;;35.73;;
18084;SDS011;9169;44.492;11.372;2024-03-22T08:39:09;77.40;;;31.97;;
18084;SDS011;9169;44.492;11.372;2024-03-22T08:41:37;71.60;;;31.30;;
18084;SDS011;9169;44.492;11.372;2024-03-22T08:44:05;70.27;;;30.47;;
18084;SDS011;9169;44.492;11.372;2024-03-22T08:46:33;75.93;;;32.73;;
18084;SDS011;9169;44.492;11.372;2024-03-22T08:49:00;72.63;;;30.47;;
18084;SDS011;9169;44.492;11.372;2024-03-22T08:51:28;68.50;;;30.63;;
18084;SDS011;9169;44.492;11.372;2024-03-22T08:53:56;68.70;;;30.40;;
18084;SDS011;9169;44.492;11.372;2024-03-22T08:56:23;70.50;;;32.00;;
18084;SDS011;9169;44.492;11.372;2024-03-22T08:58:50;75.03;;;33.27;;
18084;SDS011;9169;44.492;11.372;2024-03-22T09:01:19;78.13;;;34.07;;
18084;SDS011;9169;44.492;11.372;2024-03-22T09:03:46;71.03;;;34.07;;
18084;SDS011;9169;44.492;11.372;2024-03-22T09:06:15;68.47;;;35.43;;
18084;SDS011;9169;44.492;11.372;2024-03-22T09:08:41;68.80;;;32.77;;
18084;SDS011;9169;44.492;11.372;2024-03-22T09:11:09;69.83;;;35.30;;
18084;SDS011;9169;44.492;11.372;2024-03-22T09:13:36;73.83;;;32.70;;
18084;SDS011;9169;44.492;11.372;2024-03-22T09:16:04;81.73;;;35.43;;
18084;SDS011;9169;44.492;11.372;2024-03-22T09:18:32;74.40;;;35.20;;
18084;SDS011;9169;44.492;11.372;2024-03-22T09:20:59;75.40;;;33.03;;
18084;SDS011;9169;44.492;11.372;2024-03-22T09:23:26;71.40;;;34.23;;
18084;SDS011;9169;44.492;11.372;2024-03-22T09:25:54;73.60;;;36.00;;
18084;SDS011;9169;44.492;11.372;2024-03-22T09:28:20;77.80;;;38.80;;
18084;SDS011;9169;44.492;11.372;2024-03-22T09:30:48;80.20;;;36.90;;
18084;SDS011;9169;44.492;11.372;2024-03-22T09:33:15;78.53;;;37.50;;
18084;SDS011;9169;44.492;11.372;2024-03-22T09:35:45;80.73;;;38.57;;
18084;SDS011;9169;44.492;11.372;2024-03-22T09:38:11;77.77;;;37.57;;
18084;SDS011;9169;44.492;11.372;2024-03-22T09:40:43;78.20;;;38.37;;
18084;SDS011;9169;44.492;11.372;2024-03-22T09:43:13;82.57;;;39.17;;
18084;SDS011;9169;44.492;11.372;2024-03-22T09:45:44;77.40;;;38.53;;
18084;SDS011;9169;44.492;11.372;2024-03-22T09:48:11;76.50;;;37.80;;
18084;SDS011;9169;44.492;11.372;2024-03-22T09:50:40;70.27;;;37.77;;
18084;SDS011;9169;44.492;11.372;2024-03-22T09:53:09;73.80;;;37.70;;
18084;SDS011;9169;44.492;11.372;2024-03-22T09:55:37;68.60;;;36.10;;
18084;SDS011;9169;44.492;11.372;2024-03-22T09:58:05;68.40;;;37.90;;
18084;SDS011;9169;44.492;11.372;2024-03-22T10:00:33;63.83;;;37.17;;
18084;SDS011;9169;44.492;11.372;2024-03-22T10:03:00;58.67;;;39.17;;
18084;SDS011;9169;44.492;11.372;2024-03-22T10:05:30;55.20;;;38.00;;
18084;SDS011;9169;44.492;11.372;2024-03-22T10:07:56;52.10;;;37.50;;
18084;SDS011;9169;44.492;11.372;2024-03-22T10:10:26;49.90;;;37.10;;
18084;SDS011;9169;44.492;11.372;2024-03-22T10:12:52;46.03;;;35.00;;
18084;SDS011;9169;44.492;11.372;2024-03-22T10:15:23;40.47;;;33.83;;
18084;SDS011;9169;44.492;11.372;2024-03-22T10:17:52;41.43;;;31.90;;
18084;SDS011;9169;44.492;11.372;2024-03-22T10:20:22;40.90;;;34.13;;
18084;SDS011;9169;44.492;11.372;2024-03-22T10:22:55;41.33;;;34.03;;
18084;SDS011;9169;44.492;11.372;2024-03-22T10:25:24;41.73;;;33.00;;
18084;SDS011;9169;44.492;11.372;2024-03-22T10:27:53;39.20;;;32.63;;
18084;SDS011;9169;44.492;11.372;2024-03-22T10:30:22;37.53;;;32.83;;
18084;SDS011;9169;44.492;11.372;2024-03-22T10:32:50;35.37;;;28.97;;
18084;SDS011;9169;44.492;11.372;2024-03-22T10:35:18;35.63;;;28.87;;
18084;SDS011;9169;44.492;11.372;2024-03-22T10:37:45;34.00;;;29.73;;
18084;SDS011;9169;44.492;11.372;2024-03-22T10:40:13;32.87;;;28.57;;
18084;SDS011;9169;44.492;11.372;2024-03-22T10:42:41;34.90;;;29.67;;
18084;SDS011;9169;44.492;11.372;2024-03-22T10:45:12;30.40;;;25.53;;
18084;SDS011;9169;44.492;11.372;2024-03-22T10:47:39;30.13;;;25.77;;
18084;SDS011;9169;44.492;11.372;2024-03-22T10:50:11;33.70;;;28.73;;
18084;SDS011;9169;44.492;11.372;2024-03-22T10:52:39;38.10;;;30.60;;
18084;SDS011;9169;44.492;11.372;2024-03-22T10:55:13;35.50;;;30.67;;
18084;SDS011;9169;44.492;11.372;2024-03-22T10:57:47;32.83;;;28.37;;
18084;SDS011;9169;44.492;11.372;2024-03-22T11:00:15;30.50;;;24.83;;
18084;SDS011;9169;44.492;11.372;2024-03-22T11:02:52;31.40;;;23.03;;
18084;SDS011;9169;44.492;11.372;2024-03-22T11:05:21;25.47;;;21.50;;
18084;SDS011;9169;44.492;11.372;2024-03-22T11:07:58;20.50;;;17.90;;
18084;SDS011;9169;44.492;11.372;2024-03-22T11:10:30;31.53;;;23.03;;
18084;SDS011;9169;44.492;11.372;2024-03-22T11:13:02;27.53;;;23.10;;
18084;SDS011;9169;44.492;11.372;2024-03-22T11:15:30;18.93;;;16.30;;
18084;SDS011;9169;44.492;11.372;2024-03-22T11:18:16;19.20;;;17.20;;
18084;SDS011;9169;44.492;11.372;2024-03-22T11:20:44;19.23;;;17.00;;
18084;SDS011;9169;44.492;11.372;2024-03-22T11:23:13;22.03;;;19.63;;
18084;SDS011;9169;44.492;11.372;2024-03-22T11:25:40;25.93;;;18.70;;
18084;SDS011;9169;44.492;11.372;2024-03-22T11:28:08;20.63;;;18.20;;
18084;SDS011;9169;44.492;11.372;2024-03-22T11:30:37;22.60;;;18.80;;
18084;SDS011;9169;44.492;11.372;2024-03-22T11:33:04;30.53;;;20.03;;
18084;SDS011;9169;44.492;11.372;2024-03-22T11:35:33;24.30;;;19.07;;
18084;SDS011;9169;44.492;11.372;2024-03-22T11:38:00;22.87;;;19.97;;
18084;SDS011;9169;44.492;11.372;2024-03-22T11:40:30;21.27;;;18.87;;
18084;SDS011;9169;44.492;11.372;2024-03-22T11:42:59;21.43;;;15.70;;
18084;SDS011;9169;44.492;11.372;2024-03-22T11:45:29;16.13;;;13.93;;
18084;SDS011;9169;44.492;11.372;2024-03-22T11:47:57;15.07;;;12.27;;
18084;SDS011;9169;44.492;11.372;2024-03-22T11:50:29;16.17;;;12.83;;
18084;SDS011;9169;44.492;11.372;2024-03-22T11:52:55;15.73;;;13.20;;
18084;SDS011;9169;44.492;11.372;2024-03-22T11:55:26;18.20;;;12.67;;
18084;SDS011;9169;44.492;11.372;2024-03-22T11:57:53;14.43;;;11.20;;
18084;SDS011;9169;44.492;11.372;2024-03-22T12:00:24;13.40;;;11.50;;
18084;SDS011;9169;44.492;11.372;2024-03-22T12:02:53;13.23;;;10.57;;
18084;SDS011;9169;44.492;11.372;2024-03-22T12:05:21;15.87;;;11.27;;
18084;SDS011;9169;44.492;11.372;2024-03-22T12:07:47;12.63;;;9.97;;
18084;SDS011;9169;44.492;11.372;2024-03-22T12:10:15;12.73;;;9.63;;
18084;SDS011;9169;44.492;11.372;2024-03-22T12:12:42;11.40;;;9.30;;
18084;SDS011;9169;44.492;11.372;2024-03-22T12:15:09;13.83;;;11.53;;
18084;SDS011;9169;44.492;11.372;2024-03-22T12:17:36;15.53;;;11.67;;
18084;SDS011;9169;44.492;11.372;2024-03-22T12:20:08;15.60;;;12.07;;
18084;SDS011;9169;44.492;11.372;2024-03-22T12:22:35;14.27;;;12.37;;
18084;SDS011;9169;44.492;11.372;2024-03-22T12:25:03;17.40;;;14.07;;
18084;SDS011;9169;44.492;11.372;2024-03-22T12:27:32;17.80;;;13.87;;
18084;SDS011;9169;44.492;11.372;2024-03-22T12:30:00;16.80;;;14.47;;
18084;SDS011;9169;44.492;11.372;2024-03-22T12:32:26;15.57;;;12.40;;
18084;SDS011;9169;44.492;11.372;2024-03-22T12:34:54;14.33;;;11.70;;
18084;SDS011;9169;44.492;11.372;2024-03-22T12:37:23;15.70;;;11.20;;
18084;SDS011;9169;44.492;11.372;2024-03-22T12:39:50;12.80;;;11.17;;
18084;SDS011;9169;44.492;11.372;2024-03-22T12:42:18;15.60;;;13.30;;
18084;SDS011;9169;44.492;11.372;2024-03-22T12:44:45;16.23;;;13.30;;
18084;SDS011;9169;44.492;11.372;2024-03-22T12:47:12;15.40;;;11.53;;
18084;SDS011;9169;44.492;11.372;2024-03-22T12:49:40;16.43;;;12.53;;
18084;SDS011;9169;44.492;11.372;2024-03-22T12:52:06;13.47;;;11.20;;
18084;SDS011;9169;44.492;11.372;2024-03-22T12:54:36;18.80;;;11.00;;
18084;SDS011;9169;44.492;11.372;2024-03-22T12:57:02;15.20;;;10.53;;
18084;SDS011;9169;44.492;11.372;2024-03-22T12:59:30;21.30;;;12.83;;
18084;SDS011;9169;44.492;11.372;2024-03-22T13:01:57;18.20;;;12.93;;
18084;SDS011;9169;44.492;11.372;2024-03-22T13:04:26;16.50;;;13.17;;
18084;SDS011;9169;44.492;11.372;2024-03-22T13:06:54;17.63;;;13.03;;
18084;SDS011;9169;44.492;11.372;2024-03-22T13:09:22;16.00;;;11.60;;
18084;SDS011;9169;44.492;11.372;2024-03-22T13:11:51;13.37;;;10.63;;
18084;SDS011;9169;44.492;11.372;2024-03-22T13:14:23;13.20;;;10.30;;
18084;SDS011;9169;44.492;11.372;2024-03-22T13:16:57;13.90;;;11.27;;
18084;SDS011;9169;44.492;11.372;2024-03-22T13:19:24;14.13;;;11.00;;
18084;SDS011;9169;44.492;11.372;2024-03-22T13:21:52;15.27;;;9.47;;
18084;SDS011;9169;44.492;11.372;2024-03-22T13:24:19;15.87;;;10.17;;
18084;SDS011;9169;44.492;11.372;2024-03-22T13:26:47;17.83;;;11.77;;
18084;SDS011;9169;44.492;11.372;2024-03-22T13:29:16;21.33;;;12.50;;
18084;SDS011;9169;44.492;11.372;2024-03-22T13:31:42;13.80;;;10.30;;
18084;SDS011;9169;44.492;11.372;2024-03-22T13:34:11;12.23;;;9.40;;
18084;SDS011;9169;44.492;11.372;2024-03-22T13:36:38;10.80;;;8.03;;
18084;SDS011;9169;44.492;11.372;2024-03-22T13:39:06;12.50;;;9.13;;
18084;SDS011;9169;44.492;11.372;2024-03-22T13:41:36;13.32;;;11.32;;
18084;SDS011;9169;44.492;11.372;2024-03-22T13:44:04;9.75;;;7.43;;
18084;SDS011;9169;44.492;11.372;2024-03-22T13:46:35;12.75;;;7.28;;
18084;SDS011;9169;44.492;11.372;2024-03-22T13:49:12;9.93;;;7.53;;
18084;SDS011;9169;44.492;11.372;2024-03-22T13:51:41;9.93;;;7.93;;
18084;SDS011;9169;44.492;11.372;2024-03-22T13:54:09;10.65;;;7.30;;
18084;SDS011;9169;44.492;11.372;2024-03-22T13:56:36;8.40;;;5.90;;
18084;SDS011;9169;44.492;11.372;2024-03-22T13:59:04;12.65;;;9.55;;
18084;SDS011;9169;44.492;11.372;2024-03-22T14:01:31;15.45;;;7.72;;
18084;SDS011;9169;44.492;11.372;2024-03-22T14:04:00;8.30;;;5.13;;
18084;SDS011;9169;44.492;11.372;2024-03-22T14:06:27;8.02;;;5.85;;
18084;SDS011;9169;44.492;11.372;2024-03-22T14:08:55;12.65;;;7.53;;
18084;SDS011;9169;44.492;11.372;2024-03-22T14:11:26;11.10;;;8.18;;
18084;SDS011;9169;44.492;11.372;2024-03-22T14:13:56;9.55;;;7.93;;
18084;SDS011;9169;44.492;11.372;2024-03-22T14:16:23;10.10;;;7.05;;
18084;SDS011;9169;44.492;11.372;2024-03-22T14:18:51;10.77;;;7.07;;
18084;SDS011;9169;44.492;11.372;2024-03-22T14:21:19;10.27;;;6.78;;
18084;SDS011;9169;44.492;11.372;2024-03-22T14:23:47;19.38;;;8.07;;